Time;durP1;ratioP1;P1;durP2;ratioP2;P2;SDS_P1;SDS_P2;PMS_P1;PMS_P2;Temp;Humidity;BMP_temperature;BMP_pressure;BME280_temperature;BME280_humidity;BME280_pressure;Samples;Min_cycle;Max_cycle;Signal;HPM_P1;HPM_P2
2021/05/20 00:00:15;;;;;;;57.17;2.60;;;10.00;1.00;;;;;;5133435;27;20593;-67
2021/05/20 00:02:42;;;;;;;57.47;2.87;;;9.90;1.00;;;;;;5132445;27;20484;-65
2021/05/20 00:05:11;;;;;;;57.20;2.53;;;9.90;1.00;;;;;;5132818;27;20448;-65
2021/05/20 00:07:38;;;;;;;57.13;2.43;;;9.90;1.00;;;;;;5132869;27;20479;-66
2021/05/20 00:10:06;;;;;;;57.30;2.60;;;9.90;1.00;;;;;;5132969;27;20482;-65
2021/05/20 00:12:32;;;;;;;57.20;2.40;;;9.90;1.00;;;;;;5132364;27;20493;-66
2021/05/20 00:14:59;;;;;;;57.70;2.53;;;9.90;1.00;;;;;;5132656;27;20530;-66
2021/05/20 00:17:25;;;;;;;57.60;2.70;;;9.90;1.00;;;;;;5132914;27;20876;-66
2021/05/20 00:19:53;;;;;;;57.20;2.40;;;9.90;1.00;;;;;;5133024;27;20447;-66
2021/05/20 00:22:19;;;;;;;57.17;2.40;;;9.90;1.00;;;;;;5132526;27;20589;-66
2021/05/20 00:24:45;;;;;;;57.23;2.43;;;9.90;1.00;;;;;;5132509;27;20864;-66
2021/05/20 00:27:12;;;;;;;57.33;2.40;;;9.90;1.00;;;;;;5132109;27;20532;-66
2021/05/20 00:29:38;;;;;;;57.27;2.33;;;9.90;1.00;;;;;;5132575;27;20446;-67
2021/05/20 00:32:05;;;;;;;57.13;2.20;;;9.90;1.00;;;;;;5132405;27;20470;-67
2021/05/20 00:34:31;;;;;;;56.97;2.10;;;9.90;1.00;;;;;;5132487;27;20443;-66
2021/05/20 00:36:59;;;;;;;57.13;2.27;;;9.90;1.00;;;;;;5132490;27;20538;-66
2021/05/20 00:39:25;;;;;;;57.03;2.40;;;9.90;1.00;;;;;;5132299;27;20875;-66
2021/05/20 00:41:52;;;;;;;57.27;2.40;;;9.90;1.00;;;;;;5132006;27;20558;-67
2021/05/20 00:44:18;;;;;;;60.10;2.87;;;10.00;1.00;;;;;;5132331;27;20476;-66
2021/05/20 00:46:44;;;;;;;57.30;2.40;;;9.90;1.00;;;;;;5132743;27;20453;-67
2021/05/20 00:49:10;;;;;;;57.27;2.60;;;10.00;1.00;;;;;;5132340;27;20570;-66
2021/05/20 00:51:40;;;;;;;57.17;2.37;;;10.00;1.00;;;;;;5132459;27;20546;-67
2021/05/20 00:54:08;;;;;;;57.17;2.43;;;10.00;1.00;;;;;;5132115;27;21003;-67
2021/05/20 00:56:37;;;;;;;57.10;2.50;;;10.10;1.00;;;;;;5132245;27;20538;-66
2021/05/20 00:59:04;;;;;;;58.10;2.63;;;10.10;1.00;;;;;;5132417;27;20884;-66
2021/05/20 01:01:31;;;;;;;57.17;2.40;;;10.10;1.00;;;;;;5132345;27;20479;-67
2021/05/20 01:03:57;;;;;;;57.37;2.47;;;10.10;1.00;;;;;;5131836;27;20489;-67
2021/05/20 01:06:24;;;;;;;56.93;2.43;;;10.10;1.00;;;;;;5132327;27;20454;-66
2021/05/20 01:08:50;;;;;;;57.07;2.70;;;10.20;1.00;;;;;;5132079;27;20909;-66
2021/05/20 01:11:18;;;;;;;57.27;2.60;;;10.20;1.00;;;;;;5132081;27;20594;-66
2021/05/20 01:13:45;;;;;;;57.60;2.60;;;10.20;1.00;;;;;;5131876;27;20502;-67
2021/05/20 01:16:11;;;;;;;57.17;2.50;;;10.20;1.00;;;;;;5132350;27;20500;-67
2021/05/20 01:18:38;;;;;;;57.27;2.40;;;10.10;1.00;;;;;;5132552;27;20865;-66
2021/05/20 01:21:05;;;;;;;57.33;2.60;;;10.10;1.00;;;;;;5132132;27;20554;-66
2021/05/20 01:23:31;;;;;;;57.60;2.70;;;10.20;1.00;;;;;;5131400;27;20818;-66
2021/05/20 01:26:02;;;;;;;57.07;2.50;;;10.20;1.00;;;;;;5132247;27;20452;-66
2021/05/20 01:28:30;;;;;;;57.07;2.40;;;10.20;1.00;;;;;;5132541;27;20568;-66
2021/05/20 01:30:57;;;;;;;57.13;2.80;;;10.20;1.00;;;;;;5132118;27;20446;-66
2021/05/20 01:33:23;;;;;;;57.20;2.47;;;10.20;1.00;;;;;;5132040;27;20538;-67
2021/05/20 01:35:50;;;;;;;57.23;2.43;;;10.20;1.00;;;;;;5131869;27;20527;-67
2021/05/20 01:41:01;;;;;;;57.20;2.50;;;10.30;1.00;;;;;;5126367;27;20976;-67
2021/05/20 01:43:28;;;;;;;57.40;2.77;;;10.20;1.00;;;;;;5135315;27;20453;-66
2021/05/20 01:45:57;;;;;;;57.20;2.60;;;10.20;1.00;;;;;;5135623;27;20439;-66
2021/05/20 01:48:24;;;;;;;58.10;2.90;;;10.20;1.00;;;;;;5135868;27;21029;-66
2021/05/20 01:50:51;;;;;;;57.40;2.40;;;10.10;1.00;;;;;;5135646;27;20470;-67
2021/05/20 01:53:18;;;;;;;57.70;2.60;;;10.10;1.00;;;;;;5135384;27;20511;-66
2021/05/20 01:55:48;;;;;;;57.90;2.80;;;10.10;1.00;;;;;;5135370;27;20947;-67
2021/05/20 01:58:14;;;;;;;57.37;2.70;;;10.10;1.00;;;;;;5135452;27;20441;-66
2021/05/20 02:00:40;;;;;;;57.17;2.53;;;10.00;1.00;;;;;;5135236;27;20533;-67
2021/05/20 02:03:07;;;;;;;57.27;2.90;;;10.00;1.00;;;;;;5134951;27;20533;-66
2021/05/20 02:05:33;;;;;;;58.23;4.40;;;9.90;1.00;;;;;;5135087;27;20868;-65
2021/05/20 02:07:59;;;;;;;57.50;2.73;;;9.90;1.00;;;;;;5134975;27;20480;-65
2021/05/20 02:10:27;;;;;;;57.30;2.50;;;9.80;1.00;;;;;;5135180;27;20987;-66
2021/05/20 02:12:53;;;;;;;57.07;2.53;;;9.80;1.00;;;;;;5134916;27;20631;-66
2021/05/20 02:15:19;;;;;;;57.47;2.70;;;9.80;1.00;;;;;;5134884;27;20534;-66
2021/05/20 02:17:46;;;;;;;57.13;2.60;;;9.80;1.00;;;;;;5135273;27;20439;-67
2021/05/20 02:20:14;;;;;;;57.10;2.50;;;9.80;1.00;;;;;;5135163;27;20607;-66
2021/05/20 02:22:40;;;;;;;57.23;2.50;;;9.80;1.00;;;;;;5134849;27;20470;-66
2021/05/20 02:25:08;;;;;;;57.20;2.47;;;9.80;1.00;;;;;;5134525;27;20451;-66
2021/05/20 02:27:35;;;;;;;57.80;2.50;;;9.70;1.00;;;;;;5134689;27;20485;-66
2021/05/20 02:30:01;;;;;;;57.20;2.53;;;9.70;1.00;;;;;;5134858;27;20873;-66
2021/05/20 02:32:28;;;;;;;57.90;2.80;;;9.70;1.00;;;;;;5134458;27;20474;-65
2021/05/20 02:34:54;;;;;;;57.23;2.60;;;9.70;1.00;;;;;;5134507;27;20819;-65
2021/05/20 02:37:20;;;;;;;57.17;2.40;;;9.70;1.00;;;;;;5134784;27;21003;-66
2021/05/20 02:39:47;;;;;;;57.20;2.53;;;9.70;1.00;;;;;;5134649;27;20533;-67
2021/05/20 02:42:13;;;;;;;57.17;2.40;;;9.70;1.00;;;;;;5134086;27;20558;-67
2021/05/20 02:44:40;;;;;;;57.23;2.43;;;9.70;1.00;;;;;;5134190;27;20531;-66
2021/05/20 02:47:07;;;;;;;57.30;2.47;;;9.80;1.00;;;;;;5134570;27;20525;-66
2021/05/20 02:49:34;;;;;;;57.40;2.80;;;9.80;1.00;;;;;;5133998;27;20577;-66
2021/05/20 02:52:00;;;;;;;57.07;2.37;;;9.80;1.00;;;;;;5133944;27;20470;-66
2021/05/20 02:54:26;;;;;;;57.20;2.50;;;9.80;1.00;;;;;;5134201;27;20890;-65
2021/05/20 02:56:53;;;;;;;57.07;2.43;;;9.80;1.00;;;;;;5134348;27;20878;-65
2021/05/20 02:59:19;;;;;;;57.40;2.40;;;9.80;1.00;;;;;;5133991;27;20955;-67
2021/05/20 03:01:47;;;;;;;58.83;3.10;;;9.80;1.00;;;;;;5134130;27;20513;-66
2021/05/20 03:04:14;;;;;;;57.03;2.30;;;9.80;1.00;;;;;;5133521;27;20497;-67
2021/05/20 03:06:41;;;;;;;57.30;2.40;;;9.80;1.00;;;;;;5134343;27;20460;-66
2021/05/20 03:09:10;;;;;;;57.30;2.50;;;9.80;1.00;;;;;;5134035;27;20924;-66
2021/05/20 03:11:37;;;;;;;57.33;2.70;;;9.80;1.00;;;;;;5133861;27;20473;-67
2021/05/20 03:14:04;;;;;;;57.13;2.50;;;9.80;1.00;;;;;;5133219;27;20895;-65
2021/05/20 03:16:30;;;;;;;57.17;2.47;;;9.80;1.00;;;;;;5133966;27;20443;-66
2021/05/20 03:18:57;;;;;;;57.37;2.60;;;9.90;1.00;;;;;;5133658;27;21014;-67
2021/05/20 03:21:26;;;;;;;57.50;2.73;;;9.90;1.00;;;;;;5133601;27;21005;-66
2021/05/20 03:23:53;;;;;;;57.23;2.60;;;9.90;1.00;;;;;;5133410;27;20453;-66
2021/05/20 03:26:20;;;;;;;57.17;2.40;;;9.90;1.00;;;;;;5133592;27;20533;-66
2021/05/20 03:28:46;;;;;;;57.20;2.60;;;9.90;1.00;;;;;;5133430;27;20501;-67
2021/05/20 03:31:12;;;;;;;57.30;2.60;;;9.90;1.00;;;;;;5133567;27;20549;-67
2021/05/20 03:33:41;;;;;;;57.37;2.57;;;9.90;1.00;;;;;;5133225;27;20474;-67
2021/05/20 03:36:08;;;;;;;57.30;2.70;;;10.00;1.00;;;;;;5133593;27;20457;-66
2021/05/20 03:38:34;;;;;;;57.37;2.53;;;10.00;1.00;;;;;;5133227;27;20442;-67
2021/05/20 03:41:01;;;;;;;57.33;2.63;;;10.00;1.00;;;;;;5133436;27;20471;-65
2021/05/20 03:43:30;;;;;;;57.30;2.40;;;10.00;1.00;;;;;;5133313;27;20454;-67
2021/05/20 03:45:56;;;;;;;57.23;2.50;;;10.00;1.00;;;;;;5133288;27;20824;-65
2021/05/20 03:48:23;;;;;;;56.93;2.37;;;9.90;1.00;;;;;;5133003;27;20512;-66
2021/05/20 03:50:49;;;;;;;57.23;2.40;;;9.90;1.00;;;;;;5133134;27;20556;-66
2021/05/20 03:53:16;;;;;;;57.37;2.63;;;9.90;1.00;;;;;;5132919;27;20444;-66
2021/05/20 03:55:43;;;;;;;57.17;2.50;;;9.90;1.00;;;;;;5132732;27;20564;-66
2021/05/20 03:58:09;;;;;;;57.50;2.40;;;9.90;1.00;;;;;;5133446;27;20541;-66
2021/05/20 04:00:35;;;;;;;57.13;2.63;;;9.90;1.00;;;;;;5133275;27;20446;-66
2021/05/20 04:03:02;;;;;;;57.17;2.60;;;9.80;1.00;;;;;;5131895;27;20903;-66
2021/05/20 04:05:28;;;;;;;57.60;3.37;;;9.90;1.00;;;;;;5132836;27;20477;-66
2021/05/20 04:07:54;;;;;;;56.97;2.53;;;9.90;1.00;;;;;;5132978;27;20484;-65
2021/05/20 04:10:23;;;;;;;57.27;2.40;;;9.90;1.00;;;;;;5132792;27;20487;-65
2021/05/20 04:12:50;;;;;;;57.27;2.50;;;9.90;1.00;;;;;;5132474;27;20550;-66
2021/05/20 04:15:16;;;;;;;57.10;2.33;;;10.00;1.00;;;;;;5132831;27;20957;-66
2021/05/20 04:17:44;;;;;;;57.00;2.47;;;10.00;1.00;;;;;;5132981;27;20437;-66
2021/05/20 04:20:11;;;;;;;56.97;2.50;;;10.00;1.00;;;;;;5132779;27;20447;-66
2021/05/20 04:22:38;;;;;;;57.27;2.40;;;10.00;1.00;;;;;;5132185;27;20468;-67
2021/05/20 04:25:05;;;;;;;57.07;2.33;;;9.90;1.00;;;;;;5132683;27;20536;-66
2021/05/20 04:27:32;;;;;;;57.27;2.60;;;9.90;1.00;;;;;;5132874;27;20450;-66
2021/05/20 04:29:59;;;;;;;57.47;2.70;;;9.80;1.00;;;;;;5132657;27;20504;-65
2021/05/20 04:32:25;;;;;;;57.17;2.23;;;9.80;1.00;;;;;;5132057;27;20496;-66
2021/05/20 04:34:51;;;;;;;57.10;2.40;;;9.80;1.00;;;;;;5132600;27;20514;-65
2021/05/20 04:37:18;;;;;;;57.17;2.50;;;9.80;1.00;;;;;;5132526;27;20527;-66
2021/05/20 04:39:44;;;;;;;58.40;2.47;;;9.80;1.00;;;;;;5132889;27;20526;-66
2021/05/20 04:42:10;;;;;;;57.17;2.40;;;9.70;1.00;;;;;;5132367;27;20561;-67
2021/05/20 04:44:37;;;;;;;57.23;2.47;;;9.80;1.00;;;;;;5132462;27;20542;-67
2021/05/20 04:47:04;;;;;;;57.27;2.50;;;9.70;1.00;;;;;;5132351;27;20447;-66
2021/05/20 04:49:31;;;;;;;57.03;2.50;;;9.70;1.00;;;;;;5132504;27;20482;-67
2021/05/20 04:51:57;;;;;;;56.97;2.30;;;9.70;1.00;;;;;;5132509;27;20474;-67
2021/05/20 04:54:23;;;;;;;57.27;2.50;;;9.80;1.00;;;;;;5132555;27;20554;-67
2021/05/20 04:56:50;;;;;;;57.30;2.43;;;9.80;1.00;;;;;;5132697;27;20452;-66
2021/05/20 04:59:16;;;;;;;57.20;2.60;;;9.80;1.00;;;;;;5132382;27;20525;-66
2021/05/20 05:01:43;;;;;;;57.20;2.50;;;9.90;1.00;;;;;;5132431;27;20554;-67
2021/05/20 05:04:09;;;;;;;57.23;2.53;;;9.90;1.00;;;;;;5132385;27;20807;-67
2021/05/20 05:06:36;;;;;;;57.60;2.77;;;10.00;1.00;;;;;;5132355;27;20454;-65
2021/05/20 05:09:04;;;;;;;57.07;2.37;;;10.00;1.00;;;;;;5132401;27;20956;-66
2021/05/20 05:11:30;;;;;;;57.50;2.80;;;10.00;1.00;;;;;;5132267;27;20553;-65
2021/05/20 05:13:56;;;;;;;57.10;2.50;;;10.10;1.00;;;;;;5134204;27;20534;-67
2021/05/20 05:16:23;;;;;;;57.20;2.50;;;10.10;1.00;;;;;;5136265;27;20972;-67
2021/05/20 05:18:50;;;;;;;57.13;2.60;;;10.20;1.00;;;;;;5136211;27;20445;-66
2021/05/20 05:21:17;;;;;;;57.20;2.63;;;10.40;1.00;;;;;;5135919;27;21046;-67
2021/05/20 05:23:44;;;;;;;57.10;2.40;;;10.60;1.00;;;;;;5135526;27;20494;-67
2021/05/20 05:26:10;;;;;;;56.97;2.40;;;10.70;1.00;;;;;;5136509;27;20443;-67
2021/05/20 05:28:37;;;;;;;57.33;3.13;;;10.80;1.00;;;;;;5135811;27;20516;-65
2021/05/20 05:31:03;;;;;;;57.00;2.30;;;10.90;1.00;;;;;;5135794;27;20588;-66
2021/05/20 05:33:29;;;;;;;57.07;2.23;;;10.90;1.00;;;;;;5135457;27;20535;-67
2021/05/20 05:35:57;;;;;;;56.97;2.47;;;10.90;1.00;;;;;;5136135;27;20538;-66
2021/05/20 05:38:23;;;;;;;57.20;2.40;;;10.90;1.00;;;;;;5135378;27;20531;-67
2021/05/20 05:40:49;;;;;;;57.20;2.40;;;11.00;1.00;;;;;;5135837;27;20499;-67
2021/05/20 05:43:16;;;;;;;56.87;2.50;;;11.00;1.00;;;;;;5135609;27;20537;-67
2021/05/20 05:45:42;;;;;;;57.17;2.40;;;11.00;1.00;;;;;;5135556;27;20534;-67
2021/05/20 05:48:11;;;;;;;57.23;2.50;;;11.10;1.00;;;;;;5135428;27;20557;-67
2021/05/20 05:50:38;;;;;;;56.97;2.60;;;11.10;1.00;;;;;;5135877;27;20447;-67
2021/05/20 05:53:07;;;;;;;57.20;2.73;;;11.10;1.00;;;;;;5135424;27;20475;-67
2021/05/20 05:55:34;;;;;;;57.03;2.47;;;11.10;1.00;;;;;;5135491;27;20897;-66
2021/05/20 05:58:00;;;;;;;57.20;2.60;;;11.20;1.00;;;;;;5135592;27;20444;-67
2021/05/20 06:00:26;;;;;;;57.07;2.40;;;11.20;1.00;;;;;;5135355;27;20538;-67
2021/05/20 06:02:53;;;;;;;57.30;2.33;;;11.20;1.00;;;;;;5135070;27;20480;-67
2021/05/20 06:05:20;;;;;;;57.10;2.50;;;11.20;1.00;;;;;;5134988;27;20444;-66
2021/05/20 06:07:46;;;;;;;57.00;2.30;;;11.20;1.00;;;;;;5135111;27;20984;-66
2021/05/20 06:10:14;;;;;;;57.00;2.40;;;11.20;1.00;;;;;;5135270;27;20911;-67
2021/05/20 06:12:40;;;;;;;57.00;2.40;;;11.30;1.00;;;;;;5134823;27;20473;-67
2021/05/20 06:15:08;;;;;;;57.30;2.60;;;11.30;1.00;;;;;;5134674;27;20447;-67
2021/05/20 06:17:36;;;;;;;57.07;2.30;;;11.30;1.00;;;;;;5135261;27;20814;-67
2021/05/20 06:20:03;;;;;;;57.10;2.80;;;11.40;1.00;;;;;;5135019;27;20440;-66
2021/05/20 06:22:29;;;;;;;57.07;2.23;;;11.40;1.00;;;;;;5134534;27;20470;-67
2021/05/20 06:24:56;;;;;;;56.87;2.40;;;11.50;1.00;;;;;;5133850;27;20444;-66
2021/05/20 06:27:26;;;;;;;56.87;2.30;;;11.60;1.00;;;;;;5134924;27;20535;-66
2021/05/20 06:29:52;;;;;;;58.23;2.50;;;11.70;1.00;;;;;;5134451;27;20574;-66
2021/05/20 06:32:18;;;;;;;57.10;2.23;;;11.80;1.00;;;;;;5134567;27;20556;-66
2021/05/20 06:34:45;;;;;;;57.03;2.30;;;12.00;1.00;;;;;;5134477;27;20446;-66
2021/05/20 06:37:11;;;;;;;57.07;2.33;;;12.20;1.00;;;;;;5134576;27;20539;-68
2021/05/20 06:39:37;;;;;;;57.60;2.60;;;12.40;1.00;;;;;;5134697;27;20519;-67
2021/05/20 06:42:04;;;;;;;57.03;2.40;;;12.50;1.00;;;;;;5134154;27;20504;-67
2021/05/20 06:44:32;;;;;;;57.13;2.47;;;12.70;1.00;;;;;;5134154;27;20448;-67
2021/05/20 06:46:58;;;;;;;56.87;2.10;;;12.90;1.00;;;;;;5134616;27;20444;-68
2021/05/20 06:49:24;;;;;;;56.67;2.20;;;12.90;1.00;;;;;;5134598;27;20865;-66
2021/05/20 06:51:51;;;;;;;57.20;2.60;;;12.90;1.00;;;;;;5134108;27;20509;-66
2021/05/20 06:54:17;;;;;;;57.47;2.67;;;12.90;1.00;;;;;;5134187;27;20527;-66
2021/05/20 06:56:47;;;;;;;57.07;2.20;;;12.90;1.00;;;;;;5134116;27;20992;-67
2021/05/20 07:01:59;;;;;;;56.97;2.20;;;13.10;1.00;;;;;;5133669;27;20463;-67
2021/05/20 07:04:25;;;;;;;57.37;2.70;;;13.30;1.00;;;;;;5133995;27;20444;-66
2021/05/20 07:06:52;;;;;;;57.17;2.30;;;13.50;1.00;;;;;;5134140;27;20532;-67
2021/05/20 07:09:18;;;;;;;57.30;2.87;;;13.60;1.00;;;;;;5133840;27;20476;-66
2021/05/20 07:11:45;;;;;;;57.37;2.80;;;13.70;1.00;;;;;;5133887;27;20468;-67
2021/05/20 07:14:11;;;;;;;57.40;2.70;;;13.80;1.00;;;;;;5133494;27;20440;-67
2021/05/20 07:16:38;;;;;;;57.10;2.50;;;13.80;1.00;;;;;;5134172;27;20528;-66
2021/05/20 07:19:05;;;;;;;57.03;2.30;;;13.90;1.00;;;;;;5133929;27;20527;-67
2021/05/20 07:21:31;;;;;;;57.07;2.30;;;14.00;1.00;;;;;;5133812;27;20500;-67
2021/05/20 07:23:58;;;;;;;57.37;2.77;;;14.00;1.00;;;;;;5133051;27;20532;-66
2021/05/20 07:26:24;;;;;;;57.17;2.30;;;14.00;1.00;;;;;;5133669;27;20453;-67
2021/05/20 07:28:50;;;;;;;57.40;2.50;;;14.00;1.00;;;;;;5133679;27;20904;-68
2021/05/20 07:31:17;;;;;;;57.20;2.10;;;13.90;1.00;;;;;;5133679;27;20490;-66
2021/05/20 07:33:43;;;;;;;56.67;2.17;;;13.80;1.00;;;;;;5133077;27;20579;-67
2021/05/20 07:36:10;;;;;;;57.50;2.70;;;13.70;1.00;;;;;;5133546;27;20444;-66
2021/05/20 07:38:39;;;;;;;57.30;2.20;;;13.90;1.00;;;;;;5133371;27;20496;-67
2021/05/20 07:41:05;;;;;;;57.30;2.40;;;14.00;1.00;;;;;;5133554;27;20857;-67
2021/05/20 07:43:32;;;;;;;57.50;2.50;;;14.00;1.00;;;;;;5132956;27;20476;-67
2021/05/20 07:45:58;;;;;;;57.03;2.30;;;14.20;1.00;;;;;;5133404;27;20539;-66
2021/05/20 07:48:25;;;;;;;57.27;2.30;;;14.50;1.00;;;;;;5133267;27;20628;-67
2021/05/20 07:50:52;;;;;;;57.30;2.30;;;14.70;1.00;;;;;;5133128;27;20860;-66
2021/05/20 07:53:19;;;;;;;57.00;2.30;;;14.90;1.00;;;;;;5132760;27;20452;-67
2021/05/20 07:55:45;;;;;;;61.50;2.80;;;15.10;1.00;;;;;;5132877;27;20476;-66
2021/05/20 07:58:11;;;;;;;57.30;3.13;;;15.40;1.00;;;;;;5133168;27;20532;-64
2021/05/20 08:00:38;;;;;;;57.47;3.00;;;15.50;1.00;;;;;;5133004;27;20526;-67
2021/05/20 08:03:15;;;;;;;57.30;2.30;;;15.60;1.00;;;;;;5132532;27;20480;-65
2021/05/20 08:05:50;;;;;;;57.13;2.37;;;15.50;1.00;;;;;;5132809;27;20519;-68
2021/05/20 08:08:21;;;;;;;57.13;2.20;;;15.40;1.00;;;;;;5132845;27;20480;-67
2021/05/20 08:10:53;;;;;;;57.17;2.30;;;15.20;1.00;;;;;;5132924;27;20451;-65
2021/05/20 08:13:19;;;;;;;57.20;2.40;;;15.10;1.00;;;;;;5132493;27;20944;-67
2021/05/20 08:15:46;;;;;;;56.83;2.20;;;15.00;1.00;;;;;;5132669;27;20449;-68
2021/05/20 08:18:13;;;;;;;56.83;2.17;;;14.80;1.00;;;;;;5132672;27;20448;-67
2021/05/20 08:20:39;;;;;;;57.17;2.20;;;14.70;1.00;;;;;;5132947;27;20527;-68
2021/05/20 08:23:05;;;;;;;56.90;2.50;;;14.70;1.00;;;;;;5132614;27;20487;-67
2021/05/20 08:25:32;;;;;;;56.97;2.30;;;14.80;1.00;;;;;;5132653;27;20441;-65
2021/05/20 08:27:59;;;;;;;56.83;2.20;;;15.00;1.00;;;;;;5132729;27;20440;-68
2021/05/20 08:30:25;;;;;;;57.10;2.17;;;15.10;1.00;;;;;;5132906;27;20539;-67
2021/05/20 08:32:52;;;;;;;57.70;2.97;;;15.30;1.00;;;;;;5132262;27;20468;-67
2021/05/20 08:35:18;;;;;;;57.13;2.33;;;15.30;1.00;;;;;;5132807;27;20448;-65
2021/05/20 08:37:45;;;;;;;57.10;2.13;;;15.50;1.00;;;;;;5132911;27;20532;-67
2021/05/20 08:40:13;;;;;;;57.50;2.40;;;15.50;1.00;;;;;;5132760;27;20992;-67
2021/05/20 08:42:40;;;;;;;57.07;2.50;;;15.60;1.00;;;;;;5132184;27;20524;-65
2021/05/20 08:45:16;;;;;;;56.77;2.20;;;15.60;1.00;;;;;;5132178;27;20959;-68
2021/05/20 08:47:43;;;;;;;56.90;2.40;;;15.70;1.00;;;;;;5133155;27;20872;-65
2021/05/20 08:50:10;;;;;;;57.40;2.60;;;15.80;1.00;;;;;;5136578;27;20487;-68
2021/05/20 08:52:37;;;;;;;57.07;2.30;;;16.00;1.00;;;;;;5136537;27;20547;-65
2021/05/20 08:55:05;;;;;;;57.07;2.27;;;16.10;1.00;;;;;;5136293;27;20979;-68
2021/05/20 08:57:32;;;;;;;56.90;2.40;;;16.10;1.00;;;;;;5136882;27;20469;-65
2021/05/20 08:59:58;;;;;;;56.47;2.40;;;16.10;1.00;;;;;;5136494;27;21038;-64
2021/05/20 09:02:30;;;;;;;56.90;2.23;;;16.10;1.00;;;;;;5136025;27;20473;-65
2021/05/20 09:04:58;;;;;;;57.17;2.20;;;16.10;1.00;;;;;;5136281;27;20533;-65
2021/05/20 09:07:30;;;;;;;57.13;2.67;;;16.00;1.00;;;;;;5136441;27;20812;-68
2021/05/20 09:10:12;;;;;;;56.87;2.30;;;15.70;1.00;;;;;;5136273;27;20476;-67
2021/05/20 09:12:38;;;;;;;57.00;2.30;;;15.40;1.00;;;;;;5135847;27;21053;-65
2021/05/20 09:15:17;;;;;;;57.20;2.40;;;15.20;1.00;;;;;;5136026;27;20449;-67
2021/05/20 09:17:45;;;;;;;56.90;2.20;;;15.10;1.00;;;;;;5136201;27;21032;-67
2021/05/20 09:20:12;;;;;;;57.00;2.30;;;15.10;1.00;;;;;;5136111;27;20527;-67
2021/05/20 09:22:38;;;;;;;57.07;2.30;;;15.10;1.00;;;;;;5135622;27;20547;-65
2021/05/20 09:25:06;;;;;;;57.10;2.20;;;15.30;1.00;;;;;;5136087;27;20536;-65
2021/05/20 09:27:35;;;;;;;56.97;2.40;;;15.60;1.00;;;;;;5136083;27;20519;-65
2021/05/20 09:30:18;;;;;;;56.70;2.20;;;16.00;1.00;;;;;;5135800;27;20481;-66
2021/05/20 09:32:49;;;;;;;56.93;2.50;;;16.40;1.00;;;;;;5135621;27;20832;-64
2021/05/20 09:35:17;;;;;;;56.83;2.23;;;16.60;1.00;;;;;;5135510;27;21005;-65
2021/05/20 09:37:49;;;;;;;56.77;2.20;;;16.70;1.00;;;;;;5135571;27;20450;-64
2021/05/20 09:40:17;;;;;;;56.43;2.30;;;17.00;1.00;;;;;;5135706;27;20444;-65
2021/05/20 09:42:46;;;;;;;57.07;2.50;;;17.30;1.00;;;;;;5135318;27;20458;-65
2021/05/20 09:45:14;;;;;;;56.63;2.20;;;17.40;1.00;;;;;;5135419;27;20579;-65
2021/05/20 09:47:41;;;;;;;56.77;2.17;;;17.40;1.00;;;;;;5135526;27;20588;-65
2021/05/20 09:50:12;;;;;;;57.40;2.50;;;17.20;1.00;;;;;;5135804;27;20840;-65
2021/05/20 09:52:38;;;;;;;57.10;2.20;;;16.90;1.00;;;;;;5135462;27;20517;-65
2021/05/20 09:55:22;;;;;;;56.97;2.53;;;16.70;1.00;;;;;;5135315;27;20441;-65
2021/05/20 09:57:48;;;;;;;57.10;2.30;;;16.50;1.00;;;;;;5135469;27;20572;-67
2021/05/20 10:00:17;;;;;;;56.97;2.20;;;16.30;1.00;;;;;;5134029;27;20472;-67
2021/05/20 10:02:45;;;;;;;57.17;2.20;;;16.20;1.00;;;;;;5134831;27;20519;-67
2021/05/20 10:05:30;;;;;;;57.10;2.13;;;16.20;1.00;;;;;;5134960;27;20972;-65
2021/05/20 10:07:57;;;;;;;56.97;2.57;;;16.20;1.00;;;;;;5135274;27;20457;-65
2021/05/20 10:10:24;;;;;;;57.07;2.27;;;16.30;1.00;;;;;;5135287;27;20534;-65
2021/05/20 10:12:51;;;;;;;57.07;2.20;;;16.50;1.00;;;;;;5134626;27;20548;-67
2021/05/20 10:15:19;;;;;;;56.87;2.17;;;16.60;1.00;;;;;;5135063;27;20528;-66
2021/05/20 10:17:46;;;;;;;56.40;2.20;;;16.90;1.00;;;;;;5135159;27;20532;-68
2021/05/20 10:20:15;;;;;;;57.10;2.20;;;17.90;1.00;;;;;;5134885;27;20438;-68
2021/05/20 10:22:42;;;;;;;57.30;2.03;;;19.60;1.00;;;;;;5134560;27;20476;-67
2021/05/20 10:25:10;;;;;;;57.00;2.10;;;21.50;1.00;;;;;;5134536;27;20481;-68
2021/05/20 10:27:37;;;;;;;57.03;2.07;;;23.00;1.00;;;;;;5134881;27;20445;-68
2021/05/20 10:30:06;;;;;;;57.40;2.50;;;24.40;1.00;;;;;;5134714;27;20491;-67
2021/05/20 10:32:33;;;;;;;57.20;2.10;;;25.10;1.00;;;;;;5134746;27;20544;-67
2021/05/20 10:35:09;;;;;;;57.03;2.20;;;25.00;1.00;;;;;;5134715;27;20456;-68
2021/05/20 10:37:38;;;;;;;56.87;2.23;;;24.20;1.00;;;;;;5134551;27;20531;-68
2021/05/20 10:40:09;;;;;;;57.67;2.43;;;23.10;1.00;;;;;;5134488;27;20445;-67
2021/05/20 10:42:38;;;;;;;57.07;2.30;;;22.70;1.00;;;;;;5134082;27;20506;-67
2021/05/20 10:45:24;;;;;;;57.20;2.20;;;22.30;1.00;;;;;;5134376;27;20852;-68
2021/05/20 10:48:22;;;;;;;56.97;2.27;;;22.70;1.00;;;;;;5134488;27;20453;-68
2021/05/20 10:50:59;;;;;;;57.00;2.20;;;23.40;1.00;;;;;;5134546;27;20527;-67
2021/05/20 10:53:47;;;;;;;57.10;2.30;;;23.20;1.00;;;;;;5134310;27;20444;-68
2021/05/20 10:56:48;;;;;;;57.17;2.33;;;23.70;1.00;;;;;;5134049;27;20455;-67
2021/05/20 10:59:41;;;;;;;56.67;2.00;;;23.60;1.00;;;;;;5134347;27;20436;-66
2021/05/20 11:02:38;;;;;;;56.87;2.03;;;24.20;1.00;;;;;;5133614;27;20478;-67
2021/05/20 11:05:21;;;;;;;57.60;2.33;;;25.10;1.00;;;;;;5134157;27;20745;-67
2021/05/20 11:07:47;;;;;;;56.97;1.90;;;25.30;1.00;;;;;;5133984;27;20985;-67
2021/05/20 11:10:14;;;;;;;57.07;2.20;;;26.40;1.00;;;;;;5133671;27;20513;-66
2021/05/20 11:12:56;;;;;;;56.70;1.97;;;27.30;1.00;;;;;;5133332;27;20464;-67
2021/05/20 11:15:23;;;;;;;56.77;2.07;;;27.90;1.00;;;;;;5133673;27;20939;-65
2021/05/20 11:17:49;;;;;;;57.20;2.00;;;28.00;1.00;;;;;;5133911;27;20532;-65
2021/05/20 11:20:52;;;;;;;56.67;2.00;;;28.50;1.00;;;;;;5133889;27;20469;-65
2021/05/20 11:23:23;;;;;;;56.67;2.00;;;29.10;1.00;;;;;;5133387;27;20444;-66
2021/05/20 11:26:01;;;;;;;56.87;1.97;;;29.20;1.00;;;;;;5133877;27;20437;-66
2021/05/20 11:28:28;;;;;;;56.67;1.77;;;29.50;1.00;;;;;;5133396;27;20571;-66
2021/05/20 11:30:58;;;;;;;56.60;1.90;;;;;;;;;;5132944;27;20448;-67
2021/05/20 11:33:26;;;;;;;56.77;2.07;;;30.80;1.00;;;;;;5132893;27;20470;-67
2021/05/20 11:36:08;;;;;;;56.57;2.00;;;31.60;1.00;;;;;;5133320;27;20473;-67
2021/05/20 11:38:35;;;;;;;57.10;2.00;;;30.80;1.00;;;;;;5133820;27;20445;-67
2021/05/20 11:41:13;;;;;;;56.83;2.00;;;28.90;1.00;;;;;;5132979;27;20507;-66
2021/05/20 11:43:41;;;;;;;56.90;1.90;;;26.90;1.00;;;;;;5133109;27;20473;-66
2021/05/20 11:46:18;;;;;;;57.10;2.10;;;25.40;1.00;;;;;;5132974;27;20836;-67
2021/05/20 11:48:56;;;;;;;57.17;2.40;;;24.20;1.00;;;;;;5132661;27;20467;-67
2021/05/20 11:51:44;;;;;;;57.00;2.27;;;23.50;1.00;;;;;;5133044;27;20508;-67
2021/05/20 11:54:13;;;;;;;57.57;2.40;;;24.00;1.00;;;;;;5132570;27;20463;-66
2021/05/20 11:56:41;;;;;;;56.80;2.03;;;24.20;1.00;;;;;;5132995;27;20470;-67
2021/05/20 11:59:09;;;;;;;57.10;2.00;;;23.70;1.00;;;;;;5133026;27;20487;-66
2021/05/20 12:01:35;;;;;;;57.23;2.40;;;23.40;1.00;;;;;;5133046;27;20468;-67
2021/05/20 12:04:03;;;;;;;57.07;2.50;;;22.80;1.00;;;;;;5132750;27;20440;-66
2021/05/20 12:06:30;;;;;;;57.47;2.40;;;22.20;1.00;;;;;;5133337;27;20530;-66
2021/05/20 12:09:11;;;;;;;57.30;2.40;;;21.40;1.00;;;;;;5133008;27;20558;-66
2021/05/20 12:11:38;;;;;;;57.27;2.20;;;20.60;1.00;;;;;;5132819;27;20857;-66
2021/05/20 12:14:23;;;;;;;57.43;2.27;;;19.90;1.00;;;;;;5132414;27;20540;-66
2021/05/20 12:16:58;;;;;;;57.47;2.40;;;19.20;1.00;;;;;;5133248;27;20487;-66
2021/05/20 12:19:25;;;;;;;56.97;2.30;;;18.70;1.00;;;;;;5133336;27;20440;-67
2021/05/20 12:22:03;;;;;;;56.97;2.50;;;18.50;1.00;;;;;;5132119;27;20551;-66
2021/05/20 12:24:31;;;;;;;57.27;2.30;;;18.30;1.00;;;;;;5132529;27;20542;-66
2021/05/20 12:27:08;;;;;;;57.27;2.30;;;18.30;1.00;;;;;;5132017;27;20454;-65
2021/05/20 12:29:37;;;;;;;57.40;2.30;;;18.30;1.00;;;;;;5132672;27;20535;-66
2021/05/20 12:32:04;;;;;;;57.13;2.50;;;18.30;1.00;;;;;;5132306;27;20463;-66
2021/05/20 12:34:30;;;;;;;57.57;2.33;;;18.50;1.00;;;;;;5132429;27;20828;-65
2021/05/20 12:37:08;;;;;;;57.47;2.40;;;19.00;1.00;;;;;;5132707;27;20584;-66
2021/05/20 12:39:34;;;;;;;57.10;2.27;;;19.90;1.00;;;;;;5132956;27;20436;-66
2021/05/20 12:42:00;;;;;;;57.40;2.20;;;20.40;1.00;;;;;;5132265;27;21003;-66
2021/05/20 12:44:27;;;;;;;57.60;2.67;;;20.60;1.00;;;;;;5132500;27;20444;-67
2021/05/20 12:46:54;;;;;;;56.97;2.17;;;20.40;1.00;;;;;;5132456;27;20454;-65
2021/05/20 12:49:22;;;;;;;56.83;2.20;;;20.20;1.00;;;;;;5132374;27;20483;-66
2021/05/20 12:51:59;;;;;;;56.87;2.37;;;19.80;1.00;;;;;;5132580;27;20590;-67
2021/05/20 12:54:27;;;;;;;57.30;2.20;;;19.50;1.00;;;;;;5132573;27;20883;-67
2021/05/20 12:57:04;;;;;;;57.17;2.60;;;19.20;1.00;;;;;;5132269;27;21017;-66
2021/05/20 12:59:38;;;;;;;57.27;2.23;;;18.80;1.00;;;;;;5132309;27;20461;-66
2021/05/20 13:02:10;;;;;;;56.63;2.30;;;18.60;1.00;;;;;;5131891;27;20482;-67